• Join FlightAware (Why Join?)
  • Login
  • US Flag 
11:18AM EST


 

Airport Tracker/Info


-or-


 

Live Flight TrackerFlight Track Log ✈ CSJ405 ✈ 08-May-2013 ✈ CYMX - KALB

Flight Track Log - Related Links

Times and Time Zones

All times are in EDT time to prevent confusion due to time zone crossing. See the CSJ405 flight status page for this flight to view local times or setup timezone preferences in your user account.

Time Position Orientation Groundspeed Altitude Reporting Facility
EDT Latitude Longitude Course Direction KTS MPH feet Rate Location/Type
04:51AM 45.6833 -73.9833 201° Southwest 100 115 1,500  Level Montreal Center
04:52AM 45.6833 -73.9500 90° East 130 150 2,400 900 Climbing Montreal Center
04:53AM 45.6500 -73.9333 161° South 110 127 3,300 960 Climbing Montreal Center
04:54AM 45.6167 -73.9333 180° South 120 138 4,400 960 Climbing Montreal Center
04:55AM 45.5833 -73.9333 180° South 120 138 5,300 900 Climbing Montreal Center
04:56AM 45.4122 -74.0161 180° South  Level Estimated
04:56AM 45.5500 -73.9333 180° South 120 138 6,200  Level Montreal Center
04:57AM 45.3705 -74.0388 201° Southwest  Level FlightAware Approximate
04:57AM 45.5167 -73.9333 180° South 130 150 6,900  Level Montreal Center
04:58AM 45.4667 -73.9333 180° South 140 161 7,600 780 Climbing Montreal Center
04:59AM 45.4333 -73.9333 180° South 140 161 8,500 780 Climbing Montreal Center
05:01AM 45.3813 -73.9307 180° South  Level Estimated
05:01AM 45.3828 -73.9353 180° South 165 190 9,800  Level Boston Center
05:02AM 45.3453 -73.9342 179° South 154 177 10,100 120 Climbing Boston Center
05:03AM 45.3017 -73.9331 179° South 154 177 10,100  Level Boston Center
05:04AM 45.2578 -73.9350 182° South 154 177 10,100  Level Boston Center
05:05AM 45.2119 -73.9308 176° South 160 184 10,100  Level Boston Center
05:06AM 45.1683 -73.9267 176° South 160 184 10,100  Level Boston Center
05:07AM 45.1247 -73.9228 176° South 160 184 10,100  Level Boston Center
05:08AM 45.0831 -73.9217 179° South 160 184 10,100  Level Boston Center
05:09AM 45.0394 -73.9206 179° South 160 184 10,100  Level Boston Center
05:10AM 44.9914 -73.9133 174° South 160 184 10,100  Level Boston Center
05:11AM 44.9456 -73.9122 179° South 160 184 10,100  Level Boston Center
05:12AM 44.9019 -73.9083 176° South 160 184 10,100  Level Boston Center
05:13AM 44.8583 -73.9042 176° South 160 184 10,100  Level Boston Center
05:14AM 44.8144 -73.9031 179° South 160 184 10,100  Level Boston Center
05:15AM 44.7750 -73.9022 179° South 160 184 10,100  Level Boston Center
05:16AM 44.7356 -73.9011 179° South 155 178 10,100  Level Boston Center
05:17AM 44.6939 -73.9000 179° South 155 178 10,100  Level Boston Center
05:18AM 44.6522 -73.8961 176° South 155 178 10,100  Level Boston Center
05:19AM 44.6106 -73.8922 176° South 155 178 10,100  Level Boston Center
05:20AM 44.5708 -73.8911 179° South 155 178 10,100  Level Boston Center
05:21AM 44.5294 -73.8903 179° South 155 178 10,100  Level Boston Center
05:22AM 44.4836 -73.8892 179° South 155 178 10,100  Level Boston Center
05:23AM 44.4419 -73.8881 179° South 155 178 10,100  Level Boston Center
05:24AM 44.4003 -73.8869 179° South 155 178 10,100  Level Boston Center
05:25AM 44.3586 -73.8831 176° South 155 178 10,100  Level Boston Center
05:26AM 44.3169 -73.8792 176° South 155 178 10,100  Level Boston Center
05:27AM 44.2731 -73.8781 179° South 160 184 10,100  Level Boston Center
05:28AM 44.2314 -73.8772 179° South 160 184 10,100  Level Boston Center
05:29AM 44.1919 -73.8733 176° South 160 184 10,100  Level Boston Center
05:30AM 44.1483 -73.8694 176° South 160 184 10,100  Level Boston Center
05:31AM 44.1128 -73.8686 179° South 160 184 10,100  Level Boston Center
05:32AM 44.0711 -73.8675 179° South 155 178 10,100  Level Boston Center
05:33AM 44.0294 -73.8636 176° South 155 178 10,100  Level Boston Center
05:34AM 43.9900 -73.8656 182° South 155 178 10,100  Level Boston Center
05:35AM 43.9483 -73.8647 179° South 155 178 10,100  Level Boston Center
05:36AM 43.9025 -73.8606 176° South 155 178 10,100  Level Boston Center
05:37AM 43.8586 -73.8597 179° South 161 185 10,100  Level Boston Center
05:38AM 43.8192 -73.8586 179° South 156 180 10,100  Level Boston Center
05:39AM 43.7817 -73.8578 179° South 156 180 10,100  Level Boston Center
05:40AM 43.7358 -73.8539 176° South 156 180 10,100  Level Boston Center
05:41AM 43.6942 -73.8528 179° South 156 180 10,100  Level Boston Center
05:42AM 43.6464 -73.8461 174° South 161 185 10,100  Level Boston Center
05:43AM 43.6047 -73.8478 182° South 161 185 10,100  Level Boston Center
05:44AM 43.5631 -73.8469 179° South 161 185 10,100  Level Boston Center
05:45AM 43.5381 -73.8492 184° South 156 180 10,100  Level Boston Center
05:45AM 43.5172 -73.8431 168° South 161 185 10,100  Level Boston Center
05:46AM 43.5006 -73.8483 193° South 155 178 10,100  Level Boston Center
05:46AM 43.4756 -73.8419 169° South 161 185 10,100  Level Boston Center
05:47AM 43.4589 -73.8444 186° South 151 174 10,100  Level Boston Center
05:47AM 43.4339 -73.8353 165° South 161 185 10,100  Level Boston Center
05:47AM 43.4233 -73.8408 201° Southwest 148 170 10,100  Level Boston Center
05:48AM 43.3922 -73.8372 175° South 155 178 10,100  Level Boston Center
05:48AM 43.3775 -73.8369 179° South 150 173 10,100  Level Boston Center
05:49AM 43.3525 -73.8364 179° South 160 184 10,100 -420 Level Boston Center
05:50AM 43.3358 -73.8358 179° South 156 180 9,700 -900 Descending Boston Center
05:50AM 43.3028 -73.8322 175° South 160 184 9,200 -840 Descending Boston Center
05:51AM 43.2881 -73.8347 187° South 171 197 8,900 -540 Descending Boston Center
05:51AM 43.2631 -73.8342 179° South 160 184 8,700 -540 Descending Boston Center
05:52AM 43.2422 -73.8339 179° South 168 193 8,400 -600 Descending Boston Center
05:52AM 43.2108 -73.8303 175° South 160 184 8,100 -540 Descending Boston Center
05:53AM 43.1942 -73.8328 186° South 165 190 7,900 -540 Descending Boston Center
05:53AM 43.1692 -73.8294 174° South 160 184 7,600 -600 Descending Boston Center
05:54AM 43.1506 -73.8317 185° South 166 191 7,300 -600 Descending Boston Center
05:54AM 43.1172 -73.8253 172° South 160 184 7,000 -600 Descending Boston Center
05:55AM 43.1025 -73.8278 187° South 166 191 6,700 -600 Descending Boston Center
05:55AM 43.0778 -73.8244 174° South 165 190 6,400 -540 Descending Boston Center
05:56AM 43.0569 -73.8239 179° South 165 190 6,200 -540 Descending Boston Center
05:56AM 43.0319 -73.8206 174° South 165 190 5,900 -540 Descending Boston Center
05:57AM 43.0111 -73.8228 184° South 163 188 5,700 -600 Descending Boston Center
05:57AM 42.9839 -73.8194 175° South 165 190 5,300 -720 Descending Boston Center
05:58AM 42.9611 -73.8217 184° South 161 185 5,000 -600 Descending Boston Center
05:58AM 42.9422 -73.8186 173° South 165 190 4,700 -600 Descending Boston Center
05:59AM 42.9153 -73.8178 179° South 163 188 4,400 -900 Descending Boston Center
05:59AM 42.8903 -73.8144 174° South 160 184 3,800 -1,320 Descending Boston Center
06:00AM 42.8714 -73.8142 179° South 163 188 3,100 -1,380 Descending Boston Center
06:01AM 42.8278 -73.8103 176° South 154 177 1,800 -1,140 Descending Boston Center
06:02AM 42.7839 -73.8064 176° South 153 176 900 -900 Descending Boston Center
06:04AM 42.7491 -73.8020 North  Level Estimated
06:11AM 42.7491 -73.8020 North  Level Estimated
06:12AM 42.7491 -73.8020 North  Level Estimated
06:13AM 42.7491 -73.8020 North  Level Estimated